sensor_id;sensor_type;location;lat;lon;timestamp;P1;durP1;ratioP1;P2;durP2;ratioP2
68432;SDS011;55412;51.350;17.056;2023-05-07T00:00:52;6.32;;;2.25;;
68432;SDS011;55412;51.350;17.056;2023-05-07T00:03:18;4.78;;;1.77;;
68432;SDS011;55412;51.350;17.056;2023-05-07T00:05:45;8.13;;;2.50;;
68432;SDS011;55412;51.350;17.056;2023-05-07T00:08:11;7.53;;;1.52;;
68432;SDS011;55412;51.350;17.056;2023-05-07T00:10:37;5.63;;;2.27;;
68432;SDS011;55412;51.350;17.056;2023-05-07T00:13:03;4.88;;;1.70;;
68432;SDS011;55412;51.350;17.056;2023-05-07T00:15:29;5.82;;;2.33;;
68432;SDS011;55412;51.350;17.056;2023-05-07T00:17:55;6.18;;;1.95;;
68432;SDS011;55412;51.350;17.056;2023-05-07T00:20:23;4.95;;;2.22;;
68432;SDS011;55412;51.350;17.056;2023-05-07T00:22:49;6.80;;;2.67;;
68432;SDS011;55412;51.350;17.056;2023-05-07T00:25:15;11.02;;;2.67;;
68432;SDS011;55412;51.350;17.056;2023-05-07T00:27:41;6.90;;;2.70;;
68432;SDS011;55412;51.350;17.056;2023-05-07T00:30:07;6.00;;;2.58;;
68432;SDS011;55412;51.350;17.056;2023-05-07T00:32:34;7.07;;;2.72;;
68432;SDS011;55412;51.350;17.056;2023-05-07T00:35:01;5.60;;;2.63;;
68432;SDS011;55412;51.350;17.056;2023-05-07T00:37:28;6.97;;;2.50;;
68432;SDS011;55412;51.350;17.056;2023-05-07T00:39:55;6.18;;;2.50;;
68432;SDS011;55412;51.350;17.056;2023-05-07T00:42:21;5.78;;;2.33;;
68432;SDS011;55412;51.350;17.056;2023-05-07T00:44:47;7.07;;;2.33;;
68432;SDS011;55412;51.350;17.056;2023-05-07T00:47:13;6.77;;;2.17;;
68432;SDS011;55412;51.350;17.056;2023-05-07T00:49:41;7.00;;;2.78;;
68432;SDS011;55412;51.350;17.056;2023-05-07T00:52:13;7.15;;;2.60;;
68432;SDS011;55412;51.350;17.056;2023-05-07T00:54:41;6.32;;;2.47;;
68432;SDS011;55412;51.350;17.056;2023-05-07T00:57:11;9.65;;;2.67;;
68432;SDS011;55412;51.350;17.056;2023-05-07T00:59:37;5.83;;;2.10;;
68432;SDS011;55412;51.350;17.056;2023-05-07T01:02:05;5.82;;;2.75;;
68432;SDS011;55412;51.350;17.056;2023-05-07T01:04:32;6.50;;;2.65;;
68432;SDS011;55412;51.350;17.056;2023-05-07T01:06:58;6.65;;;2.88;;
68432;SDS011;55412;51.350;17.056;2023-05-07T01:09:25;7.50;;;2.45;;
68432;SDS011;55412;51.350;17.056;2023-05-07T01:11:53;6.90;;;2.67;;
68432;SDS011;55412;51.350;17.056;2023-05-07T01:14:22;6.15;;;2.47;;
68432;SDS011;55412;51.350;17.056;2023-05-07T01:16:49;5.38;;;2.42;;
68432;SDS011;55412;51.350;17.056;2023-05-07T01:19:17;7.65;;;2.70;;
68432;SDS011;55412;51.350;17.056;2023-05-07T01:21:47;6.20;;;2.45;;
68432;SDS011;55412;51.350;17.056;2023-05-07T01:24:14;6.10;;;2.27;;
68432;SDS011;55412;51.350;17.056;2023-05-07T01:26:42;4.75;;;2.03;;
68432;SDS011;55412;51.350;17.056;2023-05-07T01:29:09;7.13;;;2.58;;
68432;SDS011;55412;51.350;17.056;2023-05-07T01:31:36;6.75;;;2.40;;
68432;SDS011;55412;51.350;17.056;2023-05-07T01:34:02;7.68;;;2.58;;
68432;SDS011;55412;51.350;17.056;2023-05-07T01:36:30;6.33;;;2.63;;
68432;SDS011;55412;51.350;17.056;2023-05-07T01:38:57;7.10;;;2.70;;
68432;SDS011;55412;51.350;17.056;2023-05-07T01:41:25;8.32;;;3.13;;
68432;SDS011;55412;51.350;17.056;2023-05-07T01:43:51;7.78;;;2.47;;
68432;SDS011;55412;51.350;17.056;2023-05-07T01:46:19;5.45;;;2.42;;
68432;SDS011;55412;51.350;17.056;2023-05-07T01:48:46;8.77;;;3.07;;
68432;SDS011;55412;51.350;17.056;2023-05-07T01:51:12;8.00;;;2.65;;
68432;SDS011;55412;51.350;17.056;2023-05-07T01:53:38;6.55;;;3.00;;
68432;SDS011;55412;51.350;17.056;2023-05-07T01:56:05;5.65;;;2.28;;
68432;SDS011;55412;51.350;17.056;2023-05-07T01:58:32;4.93;;;2.10;;
68432;SDS011;55412;51.350;17.056;2023-05-07T02:00:58;8.47;;;2.40;;
68432;SDS011;55412;51.350;17.056;2023-05-07T02:03:25;6.10;;;2.58;;
68432;SDS011;55412;51.350;17.056;2023-05-07T02:05:51;6.57;;;2.25;;
68432;SDS011;55412;51.350;17.056;2023-05-07T02:08:17;7.00;;;2.33;;
68432;SDS011;55412;51.350;17.056;2023-05-07T02:10:43;7.38;;;2.33;;
68432;SDS011;55412;51.350;17.056;2023-05-07T02:13:09;8.93;;;2.73;;
68432;SDS011;55412;51.350;17.056;2023-05-07T02:15:35;6.70;;;2.47;;
68432;SDS011;55412;51.350;17.056;2023-05-07T02:18:05;5.97;;;2.38;;
68432;SDS011;55412;51.350;17.056;2023-05-07T02:20:34;6.25;;;2.22;;
68432;SDS011;55412;51.350;17.056;2023-05-07T02:23:00;9.17;;;2.57;;
68432;SDS011;55412;51.350;17.056;2023-05-07T02:25:26;7.20;;;2.13;;
68432;SDS011;55412;51.350;17.056;2023-05-07T02:27:52;6.05;;;2.47;;
68432;SDS011;55412;51.350;17.056;2023-05-07T02:30:18;8.00;;;2.33;;
68432;SDS011;55412;51.350;17.056;2023-05-07T02:32:46;5.10;;;1.85;;
68432;SDS011;55412;51.350;17.056;2023-05-07T02:35:12;6.67;;;2.00;;
68432;SDS011;55412;51.350;17.056;2023-05-07T02:37:38;4.65;;;2.25;;
68432;SDS011;55412;51.350;17.056;2023-05-07T02:40:04;7.30;;;2.47;;
68432;SDS011;55412;51.350;17.056;2023-05-07T02:42:31;4.53;;;1.75;;
68432;SDS011;55412;51.350;17.056;2023-05-07T02:44:57;6.43;;;2.72;;
68432;SDS011;55412;51.350;17.056;2023-05-07T02:47:24;5.77;;;2.50;;
68432;SDS011;55412;51.350;17.056;2023-05-07T02:49:54;7.72;;;2.58;;
68432;SDS011;55412;51.350;17.056;2023-05-07T02:52:21;6.70;;;2.83;;
68432;SDS011;55412;51.350;17.056;2023-05-07T02:54:47;6.30;;;2.60;;
68432;SDS011;55412;51.350;17.056;2023-05-07T02:57:13;7.22;;;2.75;;
68432;SDS011;55412;51.350;17.056;2023-05-07T02:59:39;9.63;;;3.40;;
68432;SDS011;55412;51.350;17.056;2023-05-07T03:02:06;5.97;;;2.10;;
68432;SDS011;55412;51.350;17.056;2023-05-07T03:04:32;7.43;;;2.55;;
68432;SDS011;55412;51.350;17.056;2023-05-07T03:06:58;6.38;;;2.28;;
68432;SDS011;55412;51.350;17.056;2023-05-07T03:09:25;5.78;;;2.17;;
68432;SDS011;55412;51.350;17.056;2023-05-07T03:11:51;7.43;;;2.23;;
68432;SDS011;55412;51.350;17.056;2023-05-07T03:14:17;7.53;;;3.00;;
68432;SDS011;55412;51.350;17.056;2023-05-07T03:16:43;8.55;;;2.83;;
68432;SDS011;55412;51.350;17.056;2023-05-07T03:19:09;6.60;;;2.20;;
68432;SDS011;55412;51.350;17.056;2023-05-07T03:21:35;5.50;;;2.37;;
68432;SDS011;55412;51.350;17.056;2023-05-07T03:24:01;5.43;;;2.33;;
68432;SDS011;55412;51.350;17.056;2023-05-07T03:26:27;7.32;;;2.25;;
68432;SDS011;55412;51.350;17.056;2023-05-07T03:28:53;4.63;;;1.98;;
68432;SDS011;55412;51.350;17.056;2023-05-07T03:31:20;6.03;;;2.60;;
68432;SDS011;55412;51.350;17.056;2023-05-07T03:33:53;4.43;;;1.38;;
68432;SDS011;55412;51.350;17.056;2023-05-07T03:36:20;5.87;;;2.10;;
68432;SDS011;55412;51.350;17.056;2023-05-07T03:38:47;7.35;;;2.10;;
68432;SDS011;55412;51.350;17.056;2023-05-07T03:41:15;3.65;;;0.90;;
68432;SDS011;55412;51.350;17.056;2023-05-07T03:43:41;6.90;;;2.03;;
68432;SDS011;55412;51.350;17.056;2023-05-07T03:46:07;5.07;;;1.63;;
68432;SDS011;55412;51.350;17.056;2023-05-07T03:48:33;6.40;;;2.13;;
68432;SDS011;55412;51.350;17.056;2023-05-07T03:51:00;4.60;;;1.90;;
68432;SDS011;55412;51.350;17.056;2023-05-07T03:53:26;6.22;;;2.03;;
68432;SDS011;55412;51.350;17.056;2023-05-07T03:55:52;4.25;;;1.83;;
68432;SDS011;55412;51.350;17.056;2023-05-07T03:58:18;5.23;;;2.03;;
68432;SDS011;55412;51.350;17.056;2023-05-07T04:00:44;5.90;;;2.23;;
68432;SDS011;55412;51.350;17.056;2023-05-07T04:03:10;3.78;;;1.70;;
68432;SDS011;55412;51.350;17.056;2023-05-07T04:05:36;4.80;;;2.03;;
68432;SDS011;55412;51.350;17.056;2023-05-07T04:08:02;8.15;;;2.10;;
68432;SDS011;55412;51.350;17.056;2023-05-07T04:10:29;5.63;;;2.22;;
68432;SDS011;55412;51.350;17.056;2023-05-07T04:12:55;7.93;;;1.80;;
68432;SDS011;55412;51.350;17.056;2023-05-07T04:15:22;5.28;;;1.70;;
68432;SDS011;55412;51.350;17.056;2023-05-07T04:17:49;5.15;;;1.52;;
68432;SDS011;55412;51.350;17.056;2023-05-07T04:20:16;3.50;;;0.80;;
68432;SDS011;55412;51.350;17.056;2023-05-07T04:22:42;5.30;;;2.25;;
68432;SDS011;55412;51.350;17.056;2023-05-07T04:25:08;5.40;;;1.90;;
68432;SDS011;55412;51.350;17.056;2023-05-07T04:27:35;5.80;;;1.73;;
68432;SDS011;55412;51.350;17.056;2023-05-07T04:30:03;4.93;;;0.98;;
68432;SDS011;55412;51.350;17.056;2023-05-07T04:32:30;4.18;;;0.90;;
68432;SDS011;55412;51.350;17.056;2023-05-07T04:34:56;5.05;;;1.58;;
68432;SDS011;55412;51.350;17.056;2023-05-07T04:37:22;4.00;;;1.00;;
68432;SDS011;55412;51.350;17.056;2023-05-07T04:39:48;4.30;;;0.95;;
68432;SDS011;55412;51.350;17.056;2023-05-07T04:42:15;4.82;;;1.30;;
68432;SDS011;55412;51.350;17.056;2023-05-07T04:44:43;4.40;;;1.55;;
68432;SDS011;55412;51.350;17.056;2023-05-07T04:47:10;4.43;;;1.52;;
68432;SDS011;55412;51.350;17.056;2023-05-07T04:49:37;2.77;;;0.77;;
68432;SDS011;55412;51.350;17.056;2023-05-07T04:52:04;3.75;;;0.80;;
68432;SDS011;55412;51.350;17.056;2023-05-07T04:54:30;3.92;;;1.40;;
68432;SDS011;55412;51.350;17.056;2023-05-07T04:56:56;3.55;;;1.08;;
68432;SDS011;55412;51.350;17.056;2023-05-07T04:59:22;5.57;;;0.70;;
68432;SDS011;55412;51.350;17.056;2023-05-07T05:01:48;5.77;;;1.13;;
68432;SDS011;55412;51.350;17.056;2023-05-07T05:04:14;4.07;;;1.40;;
68432;SDS011;55412;51.350;17.056;2023-05-07T05:06:40;4.22;;;1.20;;
68432;SDS011;55412;51.350;17.056;2023-05-07T05:09:06;3.40;;;1.00;;
68432;SDS011;55412;51.350;17.056;2023-05-07T05:11:32;5.45;;;1.73;;
68432;SDS011;55412;51.350;17.056;2023-05-07T05:13:59;4.37;;;1.53;;
68432;SDS011;55412;51.350;17.056;2023-05-07T05:16:25;3.60;;;1.13;;
68432;SDS011;55412;51.350;17.056;2023-05-07T05:18:51;3.85;;;1.02;;
68432;SDS011;55412;51.350;17.056;2023-05-07T05:21:19;3.00;;;1.05;;
68432;SDS011;55412;51.350;17.056;2023-05-07T05:23:46;3.08;;;1.13;;
68432;SDS011;55412;51.350;17.056;2023-05-07T05:26:12;3.83;;;1.20;;
68432;SDS011;55412;51.350;17.056;2023-05-07T05:28:38;6.45;;;1.77;;
68432;SDS011;55412;51.350;17.056;2023-05-07T05:31:04;5.45;;;2.08;;
68432;SDS011;55412;51.350;17.056;2023-05-07T05:33:31;6.53;;;2.38;;
68432;SDS011;55412;51.350;17.056;2023-05-07T05:35:57;5.43;;;1.92;;
68432;SDS011;55412;51.350;17.056;2023-05-07T05:38:23;4.40;;;1.63;;
68432;SDS011;55412;51.350;17.056;2023-05-07T05:40:49;5.40;;;2.10;;
68432;SDS011;55412;51.350;17.056;2023-05-07T05:43:15;8.20;;;2.38;;
68432;SDS011;55412;51.350;17.056;2023-05-07T05:45:41;5.03;;;1.70;;
68432;SDS011;55412;51.350;17.056;2023-05-07T05:48:07;5.07;;;2.37;;
68432;SDS011;55412;51.350;17.056;2023-05-07T05:50:33;5.97;;;1.48;;
68432;SDS011;55412;51.350;17.056;2023-05-07T05:53:01;6.68;;;2.80;;
68432;SDS011;55412;51.350;17.056;2023-05-07T05:55:28;5.47;;;1.80;;
68432;SDS011;55412;51.350;17.056;2023-05-07T05:57:54;6.10;;;2.35;;
68432;SDS011;55412;51.350;17.056;2023-05-07T06:00:20;5.57;;;2.03;;
68432;SDS011;55412;51.350;17.056;2023-05-07T06:02:47;4.50;;;1.50;;
68432;SDS011;55412;51.350;17.056;2023-05-07T06:05:14;4.13;;;1.30;;
68432;SDS011;55412;51.350;17.056;2023-05-07T06:07:40;4.38;;;0.82;;
68432;SDS011;55412;51.350;17.056;2023-05-07T06:10:06;3.42;;;0.95;;
68432;SDS011;55412;51.350;17.056;2023-05-07T06:12:33;6.00;;;1.30;;
68432;SDS011;55412;51.350;17.056;2023-05-07T06:14:59;4.15;;;1.13;;
68432;SDS011;55412;51.350;17.056;2023-05-07T06:17:25;3.40;;;0.93;;
68432;SDS011;55412;51.350;17.056;2023-05-07T06:19:51;5.40;;;1.50;;
68432;SDS011;55412;51.350;17.056;2023-05-07T06:22:18;5.00;;;1.50;;
68432;SDS011;55412;51.350;17.056;2023-05-07T06:24:44;3.40;;;0.90;;
68432;SDS011;55412;51.350;17.056;2023-05-07T06:27:11;3.40;;;0.95;;
68432;SDS011;55412;51.350;17.056;2023-05-07T06:29:37;5.50;;;1.70;;
68432;SDS011;55412;51.350;17.056;2023-05-07T06:32:21;3.30;;;1.25;;
68432;SDS011;55412;51.350;17.056;2023-05-07T06:34:47;2.83;;;0.82;;
68432;SDS011;55412;51.350;17.056;2023-05-07T06:37:13;2.70;;;0.67;;
68432;SDS011;55412;51.350;17.056;2023-05-07T06:39:39;3.72;;;1.00;;
68432;SDS011;55412;51.350;17.056;2023-05-07T06:42:05;5.05;;;1.60;;
68432;SDS011;55412;51.350;17.056;2023-05-07T06:44:31;4.05;;;0.73;;
68432;SDS011;55412;51.350;17.056;2023-05-07T06:46:57;3.40;;;1.30;;
68432;SDS011;55412;51.350;17.056;2023-05-07T06:49:23;3.77;;;1.00;;
68432;SDS011;55412;51.350;17.056;2023-05-07T06:51:50;5.15;;;1.48;;
68432;SDS011;55412;51.350;17.056;2023-05-07T06:54:16;5.65;;;1.55;;
68432;SDS011;55412;51.350;17.056;2023-05-07T06:56:42;6.60;;;1.98;;
68432;SDS011;55412;51.350;17.056;2023-05-07T06:59:08;3.97;;;1.35;;
68432;SDS011;55412;51.350;17.056;2023-05-07T07:01:34;4.83;;;1.20;;
68432;SDS011;55412;51.350;17.056;2023-05-07T07:04:00;5.22;;;1.85;;
68432;SDS011;55412;51.350;17.056;2023-05-07T07:06:26;4.13;;;1.60;;
68432;SDS011;55412;51.350;17.056;2023-05-07T07:08:52;7.53;;;1.67;;
68432;SDS011;55412;51.350;17.056;2023-05-07T07:11:18;5.60;;;1.73;;
68432;SDS011;55412;51.350;17.056;2023-05-07T07:13:44;5.63;;;2.40;;
68432;SDS011;55412;51.350;17.056;2023-05-07T07:16:10;4.97;;;1.77;;
68432;SDS011;55412;51.350;17.056;2023-05-07T07:18:36;5.93;;;1.92;;
68432;SDS011;55412;51.350;17.056;2023-05-07T07:21:02;3.05;;;0.98;;
68432;SDS011;55412;51.350;17.056;2023-05-07T07:23:28;4.57;;;1.25;;
68432;SDS011;55412;51.350;17.056;2023-05-07T07:25:54;4.10;;;1.10;;
68432;SDS011;55412;51.350;17.056;2023-05-07T07:28:21;4.78;;;1.50;;
68432;SDS011;55412;51.350;17.056;2023-05-07T07:30:47;6.85;;;2.00;;
68432;SDS011;55412;51.350;17.056;2023-05-07T07:33:13;4.18;;;1.70;;
68432;SDS011;55412;51.350;17.056;2023-05-07T07:35:39;4.55;;;1.40;;
68432;SDS011;55412;51.350;17.056;2023-05-07T07:38:05;4.87;;;2.20;;
68432;SDS011;55412;51.350;17.056;2023-05-07T07:40:31;4.90;;;2.17;;
68432;SDS011;55412;51.350;17.056;2023-05-07T07:43:00;5.55;;;2.30;;
68432;SDS011;55412;51.350;17.056;2023-05-07T07:45:26;6.28;;;2.80;;
68432;SDS011;55412;51.350;17.056;2023-05-07T07:47:52;6.63;;;2.92;;
68432;SDS011;55412;51.350;17.056;2023-05-07T07:50:19;6.90;;;2.90;;
68432;SDS011;55412;51.350;17.056;2023-05-07T07:52:45;6.93;;;3.17;;
68432;SDS011;55412;51.350;17.056;2023-05-07T07:55:12;10.38;;;3.53;;
68432;SDS011;55412;51.350;17.056;2023-05-07T07:57:38;6.15;;;2.92;;
68432;SDS011;55412;51.350;17.056;2023-05-07T08:00:05;5.40;;;2.40;;
68432;SDS011;55412;51.350;17.056;2023-05-07T08:02:32;8.70;;;2.73;;
68432;SDS011;55412;51.350;17.056;2023-05-07T08:04:58;6.15;;;2.63;;
68432;SDS011;55412;51.350;17.056;2023-05-07T08:07:24;7.47;;;3.08;;
68432;SDS011;55412;51.350;17.056;2023-05-07T08:09:50;5.13;;;2.25;;
68432;SDS011;55412;51.350;17.056;2023-05-07T08:12:16;7.15;;;2.95;;
68432;SDS011;55412;51.350;17.056;2023-05-07T08:14:43;8.60;;;2.93;;
68432;SDS011;55412;51.350;17.056;2023-05-07T08:17:09;5.75;;;2.60;;
68432;SDS011;55412;51.350;17.056;2023-05-07T08:19:35;6.85;;;2.55;;
68432;SDS011;55412;51.350;17.056;2023-05-07T08:22:02;4.80;;;1.98;;
68432;SDS011;55412;51.350;17.056;2023-05-07T08:24:30;4.55;;;2.13;;
68432;SDS011;55412;51.350;17.056;2023-05-07T08:26:56;4.50;;;1.50;;
68432;SDS011;55412;51.350;17.056;2023-05-07T08:29:22;3.97;;;1.50;;
68432;SDS011;55412;51.350;17.056;2023-05-07T08:31:48;4.43;;;1.50;;
68432;SDS011;55412;51.350;17.056;2023-05-07T08:34:14;5.38;;;1.83;;
68432;SDS011;55412;51.350;17.056;2023-05-07T08:36:40;3.27;;;1.20;;
68432;SDS011;55412;51.350;17.056;2023-05-07T08:39:11;4.15;;;1.63;;
68432;SDS011;55412;51.350;17.056;2023-05-07T08:41:37;3.88;;;1.70;;
68432;SDS011;55412;51.350;17.056;2023-05-07T08:44:03;6.40;;;1.58;;
68432;SDS011;55412;51.350;17.056;2023-05-07T08:46:37;5.63;;;1.83;;
68432;SDS011;55412;51.350;17.056;2023-05-07T08:49:05;3.53;;;1.40;;
68432;SDS011;55412;51.350;17.056;2023-05-07T08:51:31;2.90;;;0.75;;
68432;SDS011;55412;51.350;17.056;2023-05-07T08:53:57;3.72;;;1.10;;
68432;SDS011;55412;51.350;17.056;2023-05-07T08:56:24;9.25;;;2.22;;
68432;SDS011;55412;51.350;17.056;2023-05-07T08:58:50;4.28;;;1.67;;
68432;SDS011;55412;51.350;17.056;2023-05-07T09:01:21;3.30;;;1.20;;
68432;SDS011;55412;51.350;17.056;2023-05-07T09:03:47;4.15;;;1.23;;
68432;SDS011;55412;51.350;17.056;2023-05-07T09:06:15;4.80;;;1.67;;
68432;SDS011;55412;51.350;17.056;2023-05-07T09:08:44;4.50;;;1.73;;
68432;SDS011;55412;51.350;17.056;2023-05-07T09:11:16;5.90;;;1.58;;
68432;SDS011;55412;51.350;17.056;2023-05-07T09:13:46;3.37;;;1.10;;
68432;SDS011;55412;51.350;17.056;2023-05-07T09:16:12;5.05;;;1.60;;
68432;SDS011;55412;51.350;17.056;2023-05-07T09:18:42;4.30;;;1.70;;
68432;SDS011;55412;51.350;17.056;2023-05-07T09:21:10;4.25;;;1.30;;
68432;SDS011;55412;51.350;17.056;2023-05-07T09:23:39;4.35;;;1.60;;
68432;SDS011;55412;51.350;17.056;2023-05-07T09:26:06;5.20;;;1.57;;
68432;SDS011;55412;51.350;17.056;2023-05-07T09:28:40;3.17;;;1.08;;
68432;SDS011;55412;51.350;17.056;2023-05-07T09:31:07;3.38;;;1.38;;
68432;SDS011;55412;51.350;17.056;2023-05-07T09:33:34;4.45;;;1.58;;
68432;SDS011;55412;51.350;17.056;2023-05-07T09:36:04;4.75;;;1.25;;
68432;SDS011;55412;51.350;17.056;2023-05-07T09:38:32;4.83;;;1.50;;
68432;SDS011;55412;51.350;17.056;2023-05-07T09:41:03;3.35;;;0.98;;
68432;SDS011;55412;51.350;17.056;2023-05-07T09:43:32;3.58;;;1.00;;
68432;SDS011;55412;51.350;17.056;2023-05-07T09:46:05;6.22;;;1.70;;
68432;SDS011;55412;51.350;17.056;2023-05-07T09:48:38;3.80;;;1.27;;
68432;SDS011;55412;51.350;17.056;2023-05-07T09:51:14;3.03;;;0.60;;
68432;SDS011;55412;51.350;17.056;2023-05-07T09:53:47;3.95;;;0.80;;
68432;SDS011;55412;51.350;17.056;2023-05-07T09:56:15;5.70;;;1.20;;
68432;SDS011;55412;51.350;17.056;2023-05-07T09:58:43;2.58;;;0.82;;
68432;SDS011;55412;51.350;17.056;2023-05-07T10:01:10;2.45;;;0.30;;
68432;SDS011;55412;51.350;17.056;2023-05-07T10:03:38;3.70;;;1.00;;
68432;SDS011;55412;51.350;17.056;2023-05-07T10:06:08;3.45;;;1.00;;
68432;SDS011;55412;51.350;17.056;2023-05-07T10:08:35;3.17;;;0.85;;
68432;SDS011;55412;51.350;17.056;2023-05-07T10:11:05;4.80;;;0.90;;
68432;SDS011;55412;51.350;17.056;2023-05-07T10:13:32;4.22;;;1.20;;
68432;SDS011;55412;51.350;17.056;2023-05-07T10:16:03;5.10;;;1.00;;
68432;SDS011;55412;51.350;17.056;2023-05-07T10:18:33;4.07;;;1.20;;
68432;SDS011;55412;51.350;17.056;2023-05-07T10:23:53;3.60;;;0.80;;
68432;SDS011;55412;51.350;17.056;2023-05-07T10:26:25;3.60;;;0.70;;
68432;SDS011;55412;51.350;17.056;2023-05-07T10:28:55;2.90;;;0.70;;
68432;SDS011;55412;51.350;17.056;2023-05-07T10:31:37;4.00;;;0.85;;
68432;SDS011;55412;51.350;17.056;2023-05-07T10:34:44;2.95;;;1.00;;
68432;SDS011;55412;51.350;17.056;2023-05-07T10:37:13;4.00;;;1.00;;
68432;SDS011;55412;51.350;17.056;2023-05-07T10:39:40;5.18;;;1.10;;
68432;SDS011;55412;51.350;17.056;2023-05-07T10:42:07;3.57;;;1.07;;
68432;SDS011;55412;51.350;17.056;2023-05-07T10:44:37;6.03;;;1.15;;
68432;SDS011;55412;51.350;17.056;2023-05-07T10:47:07;4.07;;;0.90;;
68432;SDS011;55412;51.350;17.056;2023-05-07T10:52:17;3.85;;;1.40;;
68432;SDS011;55412;51.350;17.056;2023-05-07T10:54:45;3.77;;;1.37;;
68432;SDS011;55412;51.350;17.056;2023-05-07T11:00:03;4.55;;;1.83;;
68432;SDS011;55412;51.350;17.056;2023-05-07T11:05:25;3.90;;;1.23;;
68432;SDS011;55412;51.350;17.056;2023-05-07T11:07:59;5.67;;;1.40;;
68432;SDS011;55412;51.350;17.056;2023-05-07T11:18:48;3.13;;;0.63;;
68432;SDS011;55412;51.350;17.056;2023-05-07T11:23:59;2.60;;;0.55;;
68432;SDS011;55412;51.350;17.056;2023-05-07T11:26:28;3.78;;;0.73;;
68432;SDS011;55412;51.350;17.056;2023-05-07T11:29:10;4.13;;;1.60;;
68432;SDS011;55412;51.350;17.056;2023-05-07T11:31:38;3.88;;;1.30;;
68432;SDS011;55412;51.350;17.056;2023-05-07T11:34:04;7.10;;;1.60;;
68432;SDS011;55412;51.350;17.056;2023-05-07T11:36:32;3.00;;;1.05;;
68432;SDS011;55412;51.350;17.056;2023-05-07T11:38:58;3.90;;;1.55;;
68432;SDS011;55412;51.350;17.056;2023-05-07T11:41:34;7.60;;;1.20;;
68432;SDS011;55412;51.350;17.056;2023-05-07T11:44:04;3.95;;;1.67;;
68432;SDS011;55412;51.350;17.056;2023-05-07T11:46:30;5.27;;;1.23;;
68432;SDS011;55412;51.350;17.056;2023-05-07T11:48:57;3.92;;;1.30;;
68432;SDS011;55412;51.350;17.056;2023-05-07T11:51:24;4.05;;;0.77;;
68432;SDS011;55412;51.350;17.056;2023-05-07T11:53:52;4.07;;;1.13;;
68432;SDS011;55412;51.350;17.056;2023-05-07T11:56:19;2.63;;;0.75;;
68432;SDS011;55412;51.350;17.056;2023-05-07T11:58:46;3.97;;;1.23;;
68432;SDS011;55412;51.350;17.056;2023-05-07T12:01:13;3.63;;;0.88;;
68432;SDS011;55412;51.350;17.056;2023-05-07T12:03:42;3.20;;;1.08;;
68432;SDS011;55412;51.350;17.056;2023-05-07T12:06:11;2.25;;;0.60;;
68432;SDS011;55412;51.350;17.056;2023-05-07T12:08:39;2.85;;;0.73;;
68432;SDS011;55412;51.350;17.056;2023-05-07T12:11:07;7.20;;;1.03;;
68432;SDS011;55412;51.350;17.056;2023-05-07T12:13:59;3.85;;;0.98;;
68432;SDS011;55412;51.350;17.056;2023-05-07T12:16:26;3.10;;;0.90;;
68432;SDS011;55412;51.350;17.056;2023-05-07T12:18:53;3.10;;;0.75;;
68432;SDS011;55412;51.350;17.056;2023-05-07T12:21:20;3.70;;;0.98;;
68432;SDS011;55412;51.350;17.056;2023-05-07T12:23:47;3.07;;;0.83;;
68432;SDS011;55412;51.350;17.056;2023-05-07T12:26:14;4.00;;;1.20;;
68432;SDS011;55412;51.350;17.056;2023-05-07T12:28:40;2.90;;;1.10;;
68432;SDS011;55412;51.350;17.056;2023-05-07T12:31:07;3.45;;;0.90;;
68432;SDS011;55412;51.350;17.056;2023-05-07T12:33:34;3.33;;;0.93;;
68432;SDS011;55412;51.350;17.056;2023-05-07T12:36:02;2.90;;;1.00;;
68432;SDS011;55412;51.350;17.056;2023-05-07T12:38:35;3.35;;;1.10;;
68432;SDS011;55412;51.350;17.056;2023-05-07T12:41:03;2.42;;;0.60;;
68432;SDS011;55412;51.350;17.056;2023-05-07T12:43:30;2.70;;;0.80;;
68432;SDS011;55412;51.350;17.056;2023-05-07T12:45:57;2.92;;;0.73;;
68432;SDS011;55412;51.350;17.056;2023-05-07T12:48:27;3.73;;;1.30;;
68432;SDS011;55412;51.350;17.056;2023-05-07T12:50:54;4.53;;;1.45;;
68432;SDS011;55412;51.350;17.056;2023-05-07T12:53:22;3.63;;;1.17;;
68432;SDS011;55412;51.350;17.056;2023-05-07T12:55:52;4.25;;;1.15;;
68432;SDS011;55412;51.350;17.056;2023-05-07T13:00:55;4.40;;;1.37;;
68432;SDS011;55412;51.350;17.056;2023-05-07T13:03:28;5.78;;;1.33;;
68432;SDS011;55412;51.350;17.056;2023-05-07T13:06:03;4.60;;;1.00;;
68432;SDS011;55412;51.350;17.056;2023-05-07T13:08:35;3.75;;;1.70;;
68432;SDS011;55412;51.350;17.056;2023-05-07T13:11:06;3.22;;;1.20;;
68432;SDS011;55412;51.350;17.056;2023-05-07T13:13:34;3.20;;;1.00;;
68432;SDS011;55412;51.350;17.056;2023-05-07T13:16:01;4.40;;;1.35;;
68432;SDS011;55412;51.350;17.056;2023-05-07T13:18:29;3.00;;;0.90;;
68432;SDS011;55412;51.350;17.056;2023-05-07T13:20:57;3.05;;;0.90;;
68432;SDS011;55412;51.350;17.056;2023-05-07T13:23:23;2.90;;;0.80;;
68432;SDS011;55412;51.350;17.056;2023-05-07T13:25:50;3.40;;;1.10;;
68432;SDS011;55412;51.350;17.056;2023-05-07T13:28:17;7.15;;;1.38;;
68432;SDS011;55412;51.350;17.056;2023-05-07T13:30:43;3.67;;;1.27;;
68432;SDS011;55412;51.350;17.056;2023-05-07T13:33:10;3.83;;;1.42;;
68432;SDS011;55412;51.350;17.056;2023-05-07T13:35:36;2.67;;;0.73;;
68432;SDS011;55412;51.350;17.056;2023-05-07T13:38:02;4.13;;;1.20;;
68432;SDS011;55412;51.350;17.056;2023-05-07T13:40:29;2.83;;;0.90;;
68432;SDS011;55412;51.350;17.056;2023-05-07T13:42:56;4.70;;;1.50;;
68432;SDS011;55412;51.350;17.056;2023-05-07T13:45:24;3.72;;;1.25;;
68432;SDS011;55412;51.350;17.056;2023-05-07T13:47:51;5.38;;;0.95;;
68432;SDS011;55412;51.350;17.056;2023-05-07T13:50:17;6.13;;;1.07;;
68432;SDS011;55412;51.350;17.056;2023-05-07T13:52:44;4.00;;;1.60;;
68432;SDS011;55412;51.350;17.056;2023-05-07T13:55:19;4.28;;;1.45;;
68432;SDS011;55412;51.350;17.056;2023-05-07T13:57:47;4.53;;;1.42;;
68432;SDS011;55412;51.350;17.056;2023-05-07T14:00:21;5.60;;;1.58;;
68432;SDS011;55412;51.350;17.056;2023-05-07T14:02:47;2.53;;;1.00;;
68432;SDS011;55412;51.350;17.056;2023-05-07T14:05:13;4.10;;;1.08;;
68432;SDS011;55412;51.350;17.056;2023-05-07T14:07:39;3.47;;;0.90;;
68432;SDS011;55412;51.350;17.056;2023-05-07T14:10:05;4.05;;;1.45;;
68432;SDS011;55412;51.350;17.056;2023-05-07T14:12:32;4.30;;;1.48;;
68432;SDS011;55412;51.350;17.056;2023-05-07T14:14:58;2.63;;;0.70;;
68432;SDS011;55412;51.350;17.056;2023-05-07T14:17:24;2.67;;;0.65;;
68432;SDS011;55412;51.350;17.056;2023-05-07T14:19:52;2.92;;;0.77;;
68432;SDS011;55412;51.350;17.056;2023-05-07T14:22:20;3.55;;;1.20;;
68432;SDS011;55412;51.350;17.056;2023-05-07T14:24:47;3.22;;;1.00;;
68432;SDS011;55412;51.350;17.056;2023-05-07T14:27:15;4.13;;;1.20;;
68432;SDS011;55412;51.350;17.056;2023-05-07T14:29:41;5.90;;;1.70;;
68432;SDS011;55412;51.350;17.056;2023-05-07T14:32:08;4.65;;;1.55;;
68432;SDS011;55412;51.350;17.056;2023-05-07T14:34:34;3.95;;;1.38;;
68432;SDS011;55412;51.350;17.056;2023-05-07T14:37:00;3.20;;;0.60;;
68432;SDS011;55412;51.350;17.056;2023-05-07T14:39:26;5.00;;;1.80;;
68432;SDS011;55412;51.350;17.056;2023-05-07T14:41:52;2.63;;;0.73;;
68432;SDS011;55412;51.350;17.056;2023-05-07T14:44:21;2.80;;;0.90;;
68432;SDS011;55412;51.350;17.056;2023-05-07T14:46:47;3.58;;;1.40;;
68432;SDS011;55412;51.350;17.056;2023-05-07T14:49:13;4.18;;;1.42;;
68432;SDS011;55412;51.350;17.056;2023-05-07T14:51:45;4.93;;;1.47;;
68432;SDS011;55412;51.350;17.056;2023-05-07T14:54:12;3.85;;;1.20;;
68432;SDS011;55412;51.350;17.056;2023-05-07T14:56:40;4.85;;;2.00;;
68432;SDS011;55412;51.350;17.056;2023-05-07T14:59:07;3.80;;;1.33;;